createdAt,value
2023-03-30T00:03:55.218Z,99845.38
2023-03-30T00:08:58.561Z,99857.97
2023-03-30T00:14:01.142Z,99842.50
2023-03-30T00:19:02.674Z,99850.69
2023-03-30T00:24:04.324Z,99839.88
2023-03-30T00:29:05.837Z,99838.41
2023-03-30T00:34:07.360Z,99846.81
2023-03-30T00:39:09.116Z,99850.06
2023-03-30T00:44:48.497Z,99848.41
2023-03-30T00:49:50.553Z,99847.41
2023-03-30T00:54:54.180Z,99849.53
2023-03-30T00:59:56.921Z,99857.69
2023-03-30T01:04:58.487Z,99860.38
2023-03-30T01:10:01.153Z,99879.94
2023-03-30T01:15:02.771Z,99905.38
2023-03-30T01:20:33.021Z,99887.63
2023-03-30T01:25:53.061Z,99867.78
2023-03-30T01:31:18.841Z,99861.91
2023-03-30T01:36:48.545Z,99859.03
2023-03-30T01:42:03.887Z,99861.03
2023-03-30T01:47:16.351Z,99888.25
2023-03-30T01:52:24.454Z,99907.47
2023-03-30T01:57:34.011Z,99912.56
2023-03-30T02:02:36.239Z,99900.13
2023-03-30T02:07:40.166Z,99902.44
2023-03-30T02:12:42.447Z,99874.94
2023-03-30T02:17:46.041Z,99860.66
2023-03-30T02:22:48.268Z,99859.00
2023-03-30T02:27:50.304Z,99834.59
2023-03-30T02:32:56.948Z,99794.56
2023-03-30T02:38:41.742Z,99758.00
2023-03-30T02:43:59.591Z,99761.97
2023-03-30T02:49:16.727Z,99765.66
2023-03-30T02:54:36.377Z,99759.91
2023-03-30T03:00:08.826Z,99781.97
2023-03-30T03:05:12.836Z,99777.00
2023-03-30T03:10:36.285Z,99796.63
2023-03-30T03:15:38.826Z,99802.59
2023-03-30T03:20:43.231Z,99780.75
2023-03-30T03:25:45.585Z,99765.03
2023-03-30T03:30:49.807Z,99700.69
2023-03-30T03:35:54.571Z,99698.19
2023-03-30T03:40:59.177Z,99720.50
2023-03-30T03:46:01.663Z,99718.13
2023-03-30T03:51:03.627Z,99704.38
2023-03-30T03:56:08.460Z,99682.38
2023-03-30T04:01:10.468Z,99685.97
2023-03-30T04:06:14.988Z,99681.25
2023-03-30T04:11:17.770Z,99683.47
2023-03-30T04:16:29.347Z,99672.72
2023-03-30T04:21:55.667Z,99679.28
2023-03-30T04:27:17.582Z,99687.13
2023-03-30T04:32:47.172Z,99691.72
2023-03-30T04:38:07.829Z,99695.28
2023-03-30T04:43:29.948Z,99686.56
2023-03-30T04:48:43.204Z,99689.53
2023-03-30T04:54:21.152Z,99659.47
2023-03-30T05:00:01.049Z,99639.69
2023-03-30T05:05:22.556Z,99651.75
2023-03-30T05:10:42.319Z,99641.84
2023-03-30T05:16:03.070Z,99661.81
2023-03-30T05:21:24.229Z,99739.91
2023-03-30T05:26:48.660Z,99863.13
2023-03-30T05:32:03.185Z,99862.06
2023-03-30T05:37:20.612Z,99872.03
2023-03-30T05:42:40.994Z,99881.19
2023-03-30T05:47:56.167Z,99882.34
2023-03-30T05:53:11.310Z,99902.13
2023-03-30T05:58:18.878Z,99916.66
2023-03-30T06:03:39.157Z,99932.03
2023-03-30T06:08:44.945Z,99934.78
2023-03-30T06:13:51.933Z,99938.50
2023-03-30T06:18:53.769Z,99949.25
2023-03-30T06:23:56.755Z,99965.22
2023-03-30T06:29:02.433Z,99967.69
2023-03-30T06:34:04.549Z,99969.38
2023-03-30T06:39:06.736Z,100010.53
2023-03-30T06:44:14.870Z,99947.66
2023-03-30T06:49:17.192Z,99958.06
2023-03-30T06:54:20.380Z,99962.25
2023-03-30T06:59:28.944Z,99976.72
2023-03-30T07:04:50.253Z,99984.00
2023-03-30T07:10:14.727Z,99964.81
2023-03-30T07:15:16.774Z,99962.66
2023-03-30T07:20:20.428Z,99958.84
2023-03-30T07:25:35.655Z,99998.22
2023-03-30T07:30:45.678Z,100012.00
2023-03-30T07:35:49.919Z,100002.94
2023-03-30T07:40:56.662Z,100035.09
2023-03-30T07:45:59.486Z,100019.19
2023-03-30T07:51:11.566Z,100005.94
2023-03-30T07:56:21.136Z,99992.97
2023-03-30T08:01:25.579Z,99931.53
2023-03-30T08:06:45.728Z,99945.38
2023-03-30T08:11:47.503Z,99931.44
2023-03-30T08:16:49.571Z,99941.66
2023-03-30T08:21:51.235Z,99927.69
2023-03-30T08:26:52.791Z,99916.25
2023-03-30T08:31:54.550Z,99924.94
2023-03-30T08:36:58.114Z,99928.81
2023-03-30T08:42:12.574Z,99927.22
2023-03-30T08:47:29.675Z,99926.72
2023-03-30T08:52:32.977Z,99943.66
2023-03-30T08:57:39.842Z,99932.16
2023-03-30T09:02:48.131Z,99957.13
2023-03-30T09:07:55.677Z,99966.19
2023-03-30T09:13:01.478Z,99976.41
2023-03-30T09:18:34.821Z,99991.16
2023-03-30T09:23:40.035Z,100026.97
2023-03-30T09:28:54.710Z,100039.28
2023-03-30T09:34:17.877Z,100034.91
2023-03-30T09:39:22.011Z,100018.16
2023-03-30T09:45:14.907Z,99985.63
2023-03-30T09:50:24.698Z,99979.56
2023-03-30T09:55:31.249Z,99990.13
2023-03-30T10:00:34.321Z,99977.94
2023-03-30T10:05:38.532Z,99989.44
2023-03-30T10:10:41.137Z,99982.81
2023-03-30T10:15:51.296Z,99982.34
2023-03-30T10:21:30.864Z,99980.06
2023-03-30T10:26:34.627Z,99973.50
2023-03-30T10:31:39.476Z,99972.16
2023-03-30T10:36:41.119Z,99966.00
2023-03-30T10:41:43.138Z,99960.38
2023-03-30T10:46:45.511Z,99962.13
2023-03-30T10:51:59.195Z,99964.44
2023-03-30T10:57:13.856Z,99935.88
2023-03-30T11:02:41.677Z,99926.19
2023-03-30T11:08:04.014Z,99931.69
2023-03-30T11:13:14.115Z,99914.28
2023-03-30T11:18:42.682Z,99912.34
2023-03-30T11:23:54.749Z,99906.50
2023-03-30T11:29:21.724Z,99922.13
2023-03-30T11:34:31.165Z,99902.72
2023-03-30T11:39:41.458Z,99906.91
2023-03-30T11:44:43.648Z,99887.56
2023-03-30T11:49:53.468Z,99891.66
2023-03-30T11:55:13.802Z,99866.94
2023-03-30T12:00:46.092Z,99897.50
2023-03-30T12:06:04.263Z,99899.94
2023-03-30T12:11:16.383Z,99883.41
2023-03-30T12:16:26.916Z,99863.66
2023-03-30T12:21:53.520Z,99841.34
2023-03-30T12:27:05.035Z,99819.47
2023-03-30T12:32:20.000Z,99830.69
2023-03-30T12:37:28.603Z,99856.06
2023-03-30T12:42:36.747Z,99850.28
2023-03-30T12:47:42.311Z,99849.09
2023-03-30T12:53:04.064Z,99825.84
2023-03-30T12:58:43.610Z,99849.78
2023-03-30T13:03:52.770Z,99864.50
2023-03-30T13:09:02.046Z,99872.59
2023-03-30T13:14:27.170Z,99875.44
2023-03-30T13:19:34.026Z,99871.69
2023-03-30T13:25:00.659Z,99875.97
2023-03-30T13:30:17.007Z,99885.78
2023-03-30T13:35:37.025Z,99899.75
2023-03-30T13:40:54.590Z,99909.06
2023-03-30T13:46:27.078Z,99907.28
2023-03-30T13:51:30.716Z,99909.88
2023-03-30T13:56:38.062Z,99917.44
2023-03-30T14:01:40.365Z,99950.16
2023-03-30T14:06:49.592Z,99935.81
2023-03-30T14:11:58.377Z,99939.84
2023-03-30T14:17:02.388Z,99936.00
2023-03-30T14:22:21.035Z,99951.00
2023-03-30T14:27:22.743Z,99950.25
2023-03-30T14:32:26.949Z,99948.75
2023-03-30T14:37:30.689Z,99939.28
2023-03-30T14:42:39.385Z,99928.34
2023-03-30T14:47:41.046Z,99927.00
2023-03-30T14:52:46.710Z,99930.50
2023-03-30T14:57:49.263Z,99926.88
2023-03-30T15:02:59.611Z,99913.59
2023-03-30T15:08:03.184Z,99879.47
2023-03-30T15:13:07.595Z,99867.34
2023-03-30T15:18:20.243Z,99856.81
2023-03-30T15:23:24.552Z,99825.91
2023-03-30T15:28:30.722Z,99850.41
2023-03-30T15:33:36.475Z,99866.59
2023-03-30T15:38:54.662Z,99869.81
2023-03-30T15:44:10.860Z,99870.53
2023-03-30T15:49:16.270Z,99846.72
2023-03-30T15:54:36.243Z,99851.72
2023-03-30T15:59:41.764Z,99848.13
2023-03-30T16:04:43.664Z,99847.53
2023-03-30T16:09:45.757Z,99833.25
2023-03-30T16:14:48.644Z,99832.69
2023-03-30T16:19:50.339Z,99840.03
2023-03-30T16:24:53.265Z,99844.03
2023-03-30T16:29:54.808Z,99842.78
2023-03-30T16:34:56.506Z,99853.31
2023-03-30T16:39:58.117Z,99850.75
2023-03-30T16:44:59.701Z,99854.47
2023-03-30T16:50:01.223Z,99856.69
2023-03-30T16:55:02.750Z,99852.31
2023-03-30T17:00:16.075Z,99851.75
2023-03-30T17:05:17.910Z,99840.47
2023-03-30T17:10:28.963Z,99838.78
2023-03-30T17:15:30.742Z,99836.00
2023-03-30T17:20:41.611Z,99864.28
2023-03-30T17:25:47.503Z,99862.28
2023-03-30T17:30:52.909Z,99871.94
2023-03-30T17:36:00.814Z,99887.78
2023-03-30T17:41:02.773Z,99890.72
2023-03-30T17:46:05.598Z,99897.91
2023-03-30T17:51:07.739Z,99894.69
2023-03-30T17:56:13.129Z,99899.91
2023-03-30T18:01:16.701Z,99905.28
2023-03-30T18:06:18.273Z,99905.16
2023-03-30T18:11:19.853Z,99909.06
2023-03-30T18:16:24.338Z,99901.78
2023-03-30T18:21:25.912Z,99908.59
2023-03-30T18:26:27.519Z,99908.59
2023-03-30T18:31:29.098Z,99909.06
2023-03-30T18:36:30.715Z,99919.72
2023-03-30T18:41:32.229Z,99915.75
2023-03-30T18:46:33.895Z,99914.50
2023-03-30T18:51:35.533Z,99921.06
2023-03-30T18:56:37.857Z,99920.25
2023-03-30T19:01:40.216Z,99920.25
2023-03-30T19:06:44.348Z,99916.66
2023-03-30T19:11:45.975Z,99904.22
2023-03-30T19:16:47.546Z,99908.25
2023-03-30T19:21:49.183Z,99894.72
2023-03-30T19:26:50.795Z,99893.84
2023-03-30T19:31:53.842Z,99889.06
2023-03-30T19:36:55.522Z,99873.97
2023-03-30T19:41:57.187Z,99873.78
2023-03-30T19:46:58.726Z,99872.75
2023-03-30T19:52:00.274Z,99862.63
2023-03-30T19:57:02.209Z,99868.69
2023-03-30T20:02:03.891Z,99856.25
2023-03-30T20:07:05.519Z,99861.81
2023-03-30T20:12:07.747Z,99839.22
2023-03-30T20:17:11.263Z,99838.72
2023-03-30T20:22:12.865Z,99836.31
2023-03-30T20:27:17.087Z,99837.28
2023-03-30T20:32:18.737Z,99843.03
2023-03-30T20:37:20.328Z,99851.81
2023-03-30T20:42:26.364Z,99854.91
2023-03-30T20:47:30.463Z,99854.19
2023-03-30T20:52:33.565Z,99853.97
2023-03-30T20:57:35.380Z,99839.09
2023-03-30T21:02:36.985Z,99840.00
2023-03-30T21:07:42.209Z,99822.56
2023-03-30T21:12:43.801Z,99822.47
2023-03-30T21:17:45.512Z,99799.84
2023-03-30T21:22:47.046Z,99789.28
2023-03-30T21:27:48.621Z,99778.06
2023-03-30T21:32:50.193Z,99774.09
2023-03-30T21:37:51.801Z,99753.31
2023-03-30T21:42:53.351Z,99727.81
2023-03-30T21:47:54.896Z,99722.03
2023-03-30T21:52:58.148Z,99730.69
2023-03-30T21:57:59.677Z,99724.22
2023-03-30T22:03:01.303Z,99738.00
2023-03-30T22:08:02.872Z,99734.69
2023-03-30T22:13:04.918Z,99720.53
2023-03-30T22:18:07.023Z,99705.66
2023-03-30T22:23:08.642Z,99705.56
2023-03-30T22:28:11.990Z,99696.69
2023-03-30T22:33:14.410Z,99684.50
2023-03-30T22:38:16.550Z,99681.41
2023-03-30T22:43:18.163Z,99677.34
2023-03-30T22:48:19.712Z,99667.53
2023-03-30T22:53:21.231Z,99659.19
2023-03-30T22:58:22.764Z,99651.09
2023-03-30T23:03:24.355Z,99643.00
2023-03-30T23:08:25.879Z,99644.41
2023-03-30T23:13:27.421Z,99631.00
2023-03-30T23:18:29.047Z,99641.34
2023-03-30T23:23:30.568Z,99639.72
2023-03-30T23:28:32.092Z,99631.13
2023-03-30T23:33:33.676Z,99603.56
2023-03-30T23:38:37.603Z,99592.59
2023-03-30T23:43:39.326Z,99581.66
2023-03-30T23:48:41.995Z,99574.94
2023-03-30T23:53:43.662Z,99570.88
2023-03-30T23:58:45.401Z,99562.66
